Port Gibson, New York
Current Conditions -  °F | °C
As of 2:54 AM on Wednesday 26 Nov 2014 (Local Time) from KROC Reporting Station
Overcast Overcast  
Wind Chill: 34°   Ceiling: 3800
Heat Index: 34°   Visibility: 10mi
Dew Point: 24°   Wind: 0mph
Humidity: 67%   Direction: NA
Pressure: 30.2"   Gusts: NA
Location:  43.03°N, 77.16°W
Report Text: KROC 260754Z 00000KT 10SM OVC038 01/M04 A3020 RMK AO2 PRESFR SLP236 T00111044
Loading
Personal Weather Stations






























Interactive Weather Map New forecast layout! Learn more

10-Day Weather Forecast

Advertisements
Track Severe Weather on mobile